Time;durP1;ratioP1;P1;durP2;ratioP2;P2;SDS_P1;SDS_P2;PMS_P1;PMS_P2;Temp;Humidity;BMP_temperature;BMP_pressure;BME280_temperature;BME280_humidity;BME280_pressure;Samples;Min_cycle;Max_cycle;Signal;HPM_P1;HPM_P2
2021/11/06 00:02:08;;;;;;;12.38;5.50;;;;;;;11.16;93.20;95584.66;5022924;28;20049;-68
2021/11/06 00:04:35;;;;;;;13.75;6.25;;;;;;;10.97;94.23;95580.47;5043240;28;20053;-68
2021/11/06 00:07:02;;;;;;;17.40;5.97;;;;;;;11.03;93.61;95582.19;5044477;28;20502;-68
2021/11/06 00:09:29;;;;;;;12.63;5.57;;;;;;;11.02;93.67;95591.00;5044259;28;20055;-68
2021/11/06 00:11:56;;;;;;;10.93;5.60;;;;;;;11.02;93.08;95589.22;5042199;28;20063;-68
2021/11/06 00:14:24;;;;;;;13.13;5.57;;;;;;;11.06;92.66;95587.00;5042473;28;20126;-68
2021/11/06 00:16:53;;;;;;;11.98;5.80;;;;;;;11.07;92.54;95578.13;5027504;28;20055;-68
2021/11/06 00:19:20;;;;;;;15.50;6.47;;;;;;;11.07;92.73;95578.13;5042495;28;20460;-68
2021/11/06 00:21:47;;;;;;;13.77;5.88;;;;;;;11.06;92.70;95579.16;5043601;28;20041;-68
2021/11/06 00:24:14;;;;;;;14.30;5.57;;;;;;;11.08;92.75;95561.50;5044404;28;20494;-68
2021/11/06 00:26:41;;;;;;;16.63;5.70;;;;;;;11.02;93.13;95567.56;5043528;28;20040;-68
2021/11/06 00:29:08;;;;;;;17.58;5.90;;;;;;;11.05;93.97;95567.13;5043814;28;20124;-68
2021/11/06 00:31:34;;;;;;;15.43;6.30;;;;;;;11.09;93.74;95573.50;5043658;28;20111;-68
2021/11/06 00:34:01;;;;;;;19.33;6.07;;;;;;;11.12;93.61;95573.06;5043332;28;20102;-69
2021/11/06 00:36:28;;;;;;;21.17;5.78;;;;;;;11.02;93.32;95557.13;5044474;28;20122;-68
2021/11/06 00:38:55;;;;;;;13.77;6.03;;;;;;;11.09;92.95;95573.50;5043730;28;20560;-68
2021/11/06 00:41:22;;;;;;;17.95;5.85;;;;;;;11.09;92.96;95563.06;5043162;28;20449;-68
2021/11/06 00:43:48;;;;;;;19.30;5.65;;;;;;;11.05;93.49;95567.91;5043837;28;20044;-68
2021/11/06 00:46:15;;;;;;;16.40;6.90;;;;;;;11.05;93.38;95567.91;5041861;28;20395;-68
2021/11/06 00:48:42;;;;;;;14.27;6.15;;;;;;;11.01;93.16;95579.78;5042923;28;20040;-68
2021/11/06 00:51:09;;;;;;;14.23;6.35;;;;;;;11.02;93.16;95577.97;5023288;28;20090;-68
2021/11/06 00:53:36;;;;;;;13.90;5.53;;;;;;;10.94;94.01;95591.31;5043730;28;20048;-68
2021/11/06 00:56:03;;;;;;;13.63;4.90;;;;;;;10.36;100.00;95590.53;5041469;28;20064;-68
2021/11/06 00:58:30;;;;;;;21.90;6.63;;;;;;;9.76;100.00;95591.63;5043701;28;20049;-68
2021/11/06 01:00:57;;;;;;;11.27;6.40;;;;;;;9.84;100.00;95592.41;5041506;28;20052;-68
2021/11/06 01:03:25;;;;;;;19.33;6.75;;;;;;;9.86;100.00;95591.16;5043566;28;21059;-68
2021/11/06 01:05:52;;;;;;;16.50;6.80;;;;;;;9.96;100.00;95590.75;5043668;28;20095;-69
2021/11/06 01:08:19;;;;;;;24.70;6.28;;;;;;;9.97;100.00;95576.72;5042034;28;20049;-69
2021/11/06 01:10:45;;;;;;;14.45;5.93;;;;;;;9.91;100.00;95582.75;5043891;28;20083;-68
2021/11/06 01:13:13;;;;;;;17.90;7.13;;;;;;;9.86;100.00;95585.97;5040921;28;20107;-69
2021/11/06 01:15:40;;;;;;;18.02;6.50;;;;;;;10.05;100.00;95584.28;5043478;28;20045;-68
2021/11/06 01:18:06;;;;;;;9.30;4.82;;;;;;;10.04;100.00;95572.25;5041535;28;20056;-67
2021/11/06 01:20:33;;;;;;;16.20;5.82;;;;;;;10.28;100.00;95598.56;5042019;28;20099;-68
2021/11/06 01:23:00;;;;;;;9.57;4.95;;;;;;;10.31;100.00;95598.19;5043111;28;20041;-68
2021/11/06 01:25:27;;;;;;;13.98;5.95;;;;;;;10.13;100.00;95591.84;5043103;28;20548;-68
2021/11/06 01:27:54;;;;;;;10.90;4.97;;;;;;;10.01;100.00;95593.53;5042763;28;20049;-68
2021/11/06 01:30:21;;;;;;;12.93;6.28;;;;;;;10.17;100.00;95596.63;5025223;28;20049;-68
2021/11/06 01:32:49;;;;;;;20.85;6.70;;;;;;;10.23;100.00;95608.81;5043611;28;20087;-68
2021/11/06 01:35:18;;;;;;;15.23;5.85;;;;;;;10.28;100.00;95608.97;5041597;28;20533;-69
2021/11/06 01:37:46;;;;;;;16.63;5.22;;;;;;;10.35;100.00;95599.34;5043581;28;20082;-69
2021/11/06 01:40:15;;;;;;;14.10;4.85;;;;;;;10.40;100.00;95601.31;5042816;28;20063;-69
2021/11/06 01:42:43;;;;;;;10.68;5.22;;;;;;;10.43;100.00;95606.13;5040941;28;20041;-69
2021/11/06 01:45:14;;;;;;;9.95;5.90;;;;;;;10.49;99.97;95606.06;5041461;28;20052;-69
2021/11/06 01:47:41;;;;;;;11.10;4.65;;;;;;;10.56;99.10;95615.66;5041794;28;20110;-68
2021/11/06 01:50:10;;;;;;;10.07;4.82;;;;;;;10.60;98.01;95612.41;5039589;28;20422;-68
2021/11/06 01:52:37;;;;;;;15.13;4.40;;;;;;;10.51;98.21;95614.47;5042892;28;22747;-68
2021/11/06 01:55:06;;;;;;;16.83;5.28;;;;;;;10.54;98.16;95615.06;5041954;28;20106;-68
2021/11/06 01:57:33;;;;;;;12.15;4.97;;;;;;;10.47;98.49;95617.72;5039850;28;20048;-68
2021/11/06 02:00:00;;;;;;;13.18;4.97;;;;;;;10.28;98.95;95598.56;5043547;28;20058;-69
2021/11/06 02:02:30;;;;;;;19.58;5.32;;;;;;;10.33;98.81;95619.59;5041096;28;20107;-69
2021/11/06 02:04:57;;;;;;;8.48;3.30;;;;;;;10.36;98.67;95608.75;5041879;28;20506;-68
2021/11/06 02:07:23;;;;;;;8.10;3.97;;;;;;;10.19;98.17;95584.19;5041851;28;20083;-68
2021/11/06 02:09:50;;;;;;;9.68;4.13;;;;;;;10.44;98.19;95618.94;5042421;28;20037;-69
2021/11/06 02:12:17;;;;;;;14.00;5.03;;;;;;;10.40;98.28;95622.94;5041317;28;20041;-68
2021/11/06 02:14:44;;;;;;;8.07;3.25;;;;;;;10.33;98.92;95614.38;5042995;28;20051;-69
2021/11/06 02:17:11;;;;;;;12.40;4.45;;;;;;;9.97;100.00;95618.34;5041724;28;21396;-69
2021/11/06 02:19:38;;;;;;;12.63;4.32;;;;;;;10.05;100.00;95604.31;5041927;28;20053;-68
2021/11/06 02:22:05;;;;;;;14.90;5.30;;;;;;;10.16;100.00;95605.47;5041472;28;20041;-68
2021/11/06 02:24:31;;;;;;;8.95;4.50;;;;;;;9.86;100.00;95611.19;5044077;28;20075;-68
2021/11/06 02:26:58;;;;;;;11.70;4.75;;;;;;;9.93;100.00;95606.75;5041179;28;20041;-68
2021/11/06 02:29:25;;;;;;;11.90;5.55;;;;;;;9.94;100.00;95592.75;5046643;28;20053;-68
2021/11/06 02:31:56;;;;;;;15.35;5.57;;;;;;;10.11;100.00;95609.47;5045746;28;20540;-68
2021/11/06 02:34:23;;;;;;;13.35;4.80;;;;;;;10.14;100.00;95618.69;5045461;28;20054;-68
2021/11/06 02:36:49;;;;;;;11.23;3.95;;;;;;;10.27;100.00;95630.81;5046135;28;20518;-69
2021/11/06 02:39:16;;;;;;;10.48;4.65;;;;;;;10.34;100.00;95636.81;5046539;28;20072;-68
2021/11/06 02:41:44;;;;;;;6.95;3.80;;;;;;;10.32;100.00;95636.22;5046603;28;20055;-68
2021/11/06 02:44:13;;;;;;;10.18;5.07;;;;;;;10.34;100.00;95649.84;5045202;28;20052;-68
2021/11/06 02:46:41;;;;;;;10.73;4.68;;;;;;;10.23;100.00;95659.06;5044142;28;20045;-68
2021/11/06 02:49:09;;;;;;;12.75;5.68;;;;;;;10.22;100.00;95670.47;5027309;28;20525;-68
2021/11/06 02:51:36;;;;;;;13.80;5.05;;;;;;;10.09;100.00;95653.13;5045736;28;20041;-68
2021/11/06 02:54:03;;;;;;;22.30;6.05;;;;;;;10.10;100.00;95665.16;5044327;28;20033;-69
2021/11/06 02:56:30;;;;;;;13.88;5.50;;;;;;;10.10;100.00;95662.53;5045272;28;20095;-68
2021/11/06 02:58:57;;;;;;;11.60;5.50;;;;;;;10.13;100.00;95667.31;5043841;28;20048;-69
2021/11/06 03:01:25;;;;;;;13.00;5.10;;;;;;;10.08;100.00;95671.56;5045890;28;20561;-69
2021/11/06 03:03:52;;;;;;;22.30;6.10;;;;;;;10.03;100.00;95669.59;5045003;28;20174;-69
2021/11/06 03:06:18;;;;;;;14.70;5.78;;;;;;;10.10;100.00;95670.34;5046578;28;20166;-69
2021/11/06 03:08:45;;;;;;;13.43;5.57;;;;;;;10.13;100.00;95651.69;5044646;28;20520;-69
2021/11/06 03:11:12;;;;;;;15.32;5.88;;;;;;;10.21;100.00;95662.88;5043781;28;20040;-69
2021/11/06 03:13:41;;;;;;;14.23;5.45;;;;;;;10.25;100.00;95677.88;5042730;28;20472;-68
2021/11/06 03:16:09;;;;;;;17.92;6.05;;;;;;;10.28;100.00;95676.66;5027837;28;20056;-68
2021/11/06 03:18:36;;;;;;;12.45;5.85;;;;;;;10.27;100.00;95683.69;5045485;28;20045;-69
2021/11/06 03:21:03;;;;;;;22.20;6.43;;;;;;;10.37;100.00;95685.88;5046064;28;20099;-69
2021/11/06 03:23:30;;;;;;;14.52;7.15;;;;;;;10.31;100.00;95697.13;5045705;28;20045;-68
2021/11/06 03:25:57;;;;;;;16.38;5.95;;;;;;;10.28;100.00;95679.25;5042751;28;20045;-69
2021/11/06 03:28:24;;;;;;;14.27;5.15;;;;;;;10.30;100.00;95664.25;5044143;28;20118;-68
2021/11/06 03:30:51;;;;;;;20.65;6.57;;;;;;;10.27;100.00;95664.66;5044684;28;20498;-68
2021/11/06 03:33:18;;;;;;;16.45;8.90;;;;;;;10.23;100.00;95673.91;5044154;28;20049;-68
2021/11/06 03:35:45;;;;;;;23.25;9.30;;;;;;;10.24;100.00;95670.28;5042520;28;20056;-68
2021/11/06 03:38:12;;;;;;;22.48;7.90;;;;;;;10.27;100.00;95691.50;5045994;28;22060;-69
2021/11/06 03:40:39;;;;;;;16.50;7.85;;;;;;;10.25;100.00;95692.72;5042427;28;20045;-68
2021/11/06 03:43:05;;;;;;;16.83;7.95;;;;;;;10.28;100.00;95687.06;5044612;28;20565;-69
2021/11/06 03:45:32;;;;;;;22.02;8.52;;;;;;;10.31;100.00;95686.69;5043607;28;20037;-69
2021/11/06 03:47:59;;;;;;;16.50;8.48;;;;;;;10.31;100.00;95676.28;5044379;28;20571;-69
2021/11/06 03:50:26;;;;;;;12.48;5.95;;;;;;;10.13;100.00;95664.72;5043123;28;20909;-69
2021/11/06 03:52:53;;;;;;;16.73;6.70;;;;;;;10.22;100.00;95667.09;5044290;28;20056;-69
2021/11/06 03:55:21;;;;;;;25.08;7.20;;;;;;;10.21;100.00;95679.31;5044229;28;20064;-69
2021/11/06 03:57:48;;;;;;;22.48;7.25;;;;;;;9.99;100.00;95684.00;5044197;28;20111;-69
2021/11/06 04:00:16;;;;;;;17.77;9.02;;;;;;;9.75;100.00;95688.88;5044632;28;20415;-69
2021/11/06 04:02:44;;;;;;;22.90;9.45;;;;;;;9.84;100.00;95701.66;5043282;28;20561;-68
2021/11/06 04:05:13;;;;;;;15.73;7.20;;;;;;;9.90;100.00;95700.84;5042977;28;20045;-68
2021/11/06 04:07:40;;;;;;;20.77;7.88;;;;;;;9.95;100.00;95698.44;5042688;28;20055;-69
2021/11/06 04:10:09;;;;;;;16.60;6.97;;;;;;;10.05;100.00;95704.00;5043101;28;20041;-69
2021/11/06 04:12:37;;;;;;;25.70;8.02;;;;;;;10.05;100.00;95714.41;5043196;28;20041;-69
2021/11/06 04:15:06;;;;;;;21.20;8.23;;;;;;;10.03;100.00;95726.84;5044678;28;20045;-69
2021/11/06 04:17:33;;;;;;;22.90;10.48;;;;;;;10.08;100.00;95727.03;5043909;28;20056;-69
2021/11/06 04:20:00;;;;;;;17.35;7.50;;;;;;;10.03;100.00;95702.59;5044087;28;20414;-69
2021/11/06 04:22:27;;;;;;;17.58;7.30;;;;;;;10.19;100.00;95703.94;5044329;28;20064;-69
2021/11/06 04:24:54;;;;;;;18.70;6.88;;;;;;;9.99;100.00;95667.59;5044924;28;20045;-69
2021/11/06 04:27:21;;;;;;;18.55;7.78;;;;;;;10.14;100.00;95702.75;5044716;28;20051;-69
2021/11/06 04:29:48;;;;;;;22.48;7.25;;;;;;;10.20;100.00;95695.13;5045055;28;20438;-69
2021/11/06 04:32:15;;;;;;;49.15;15.90;;;;;;;10.20;100.00;95682.13;5042170;28;20056;-69
2021/11/06 04:34:42;;;;;;;30.35;13.15;;;;;;;9.91;100.00;95666.03;5043506;28;20041;-69
2021/11/06 04:37:08;;;;;;;27.55;10.57;;;;;;;9.70;100.00;95688.69;5043258;28;20045;-69
2021/11/06 04:39:35;;;;;;;34.10;14.70;;;;;;;9.71;100.00;95703.28;5044288;28;20044;-69
2021/11/06 04:42:03;;;;;;;26.35;12.65;;;;;;;9.79;100.00;95704.09;5044776;28;20560;-69
2021/11/06 04:44:29;;;;;;;25.13;10.43;;;;;;;9.70;100.00;95675.66;5043806;28;20039;-68
2021/11/06 04:46:56;;;;;;;26.33;11.90;;;;;;;9.76;100.00;95700.09;5044081;28;20041;-69
2021/11/06 04:49:23;;;;;;;25.27;11.52;;;;;;;9.70;100.00;95701.69;5041396;28;20047;-68
2021/11/06 04:51:50;;;;;;;21.15;9.95;;;;;;;9.79;100.00;95719.69;5042147;28;20119;-68
2021/11/06 04:54:17;;;;;;;34.47;12.18;;;;;;;9.86;100.00;95746.50;5042451;28;20502;-70
2021/11/06 04:56:44;;;;;;;21.92;11.20;;;;;;;9.92;100.00;95745.66;5043393;28;20041;-69
2021/11/06 04:59:11;;;;;;;34.92;11.63;;;;;;;9.83;100.00;95752.09;5044166;28;20056;-69
2021/11/06 05:01:38;;;;;;;24.42;11.20;;;;;;;9.89;100.00;95752.09;5041754;28;20048;-69
2021/11/06 05:04:05;;;;;;;20.05;10.02;;;;;;;9.91;100.00;95759.69;5044737;28;20044;-69
2021/11/06 05:06:32;;;;;;;26.30;9.77;;;;;;;9.85;100.00;95755.28;5044629;28;20099;-69
2021/11/06 05:08:59;;;;;;;21.42;9.00;;;;;;;9.65;100.00;95745.75;5044789;28;20563;-69
2021/11/06 05:11:26;;;;;;;19.55;8.63;;;;;;;9.71;100.00;95755.31;5043280;28;20521;-69
2021/11/06 05:13:55;;;;;;;17.73;8.38;;;;;;;9.69;100.00;95772.16;5043541;28;20528;-69
2021/11/06 05:16:22;;;;;;;21.80;8.43;;;;;;;9.72;100.00;95767.34;5045001;28;20044;-69
2021/11/06 05:18:49;;;;;;;14.13;7.82;;;;;;;9.73;100.00;95757.72;5044682;28;20499;-69
2021/11/06 05:21:16;;;;;;;20.85;7.32;;;;;;;9.81;100.00;95798.34;5045302;28;20045;-69
2021/11/06 05:23:43;;;;;;;16.02;8.15;;;;;;;9.83;100.00;95810.16;5044008;28;20049;-69
2021/11/06 05:26:10;;;;;;;18.90;8.65;;;;;;;9.72;100.00;95790.75;5045431;28;20047;-69
2021/11/06 05:28:36;;;;;;;28.38;12.98;;;;;;;9.83;100.00;95796.31;5044566;28;20529;-69
2021/11/06 05:31:03;;;;;;;29.63;14.57;;;;;;;9.93;100.00;95786.31;5045354;28;20037;-69
2021/11/06 05:33:31;;;;;;;19.10;9.25;;;;;;;9.96;100.00;95775.50;5045048;28;20040;-69
2021/11/06 05:35:58;;;;;;;24.23;11.10;;;;;;;9.88;100.00;95786.13;5043939;28;20040;-69
2021/11/06 05:38:24;;;;;;;16.58;8.35;;;;;;;9.99;100.00;95793.28;5044236;28;20048;-69
2021/11/06 05:40:51;;;;;;;28.85;10.63;;;;;;;9.88;100.00;95775.72;5043992;28;20041;-69
2021/11/06 05:43:18;;;;;;;19.10;8.90;;;;;;;10.00;100.00;95789.69;5044249;28;20045;-69
2021/11/06 05:45:45;;;;;;;17.73;8.00;;;;;;;10.11;100.00;95791.66;5025008;28;20106;-69
2021/11/06 05:48:12;;;;;;;29.75;15.43;;;;;;;9.95;100.00;95786.91;5044908;28;20041;-69
2021/11/06 05:50:39;;;;;;;40.13;19.45;;;;;;;10.03;100.00;95794.50;5043831;28;20048;-69
2021/11/06 05:53:06;;;;;;;33.55;14.43;;;;;;;10.11;100.00;95802.09;5045040;28;20049;-69
2021/11/06 05:55:33;;;;;;;24.83;11.20;;;;;;;10.27;100.00;95802.66;5041375;28;20060;-69
2021/11/06 05:58:00;;;;;;;36.22;16.52;;;;;;;10.29;100.00;95808.47;5043256;28;20040;-69
2021/11/06 06:00:26;;;;;;;29.10;12.70;;;;;;;10.37;100.00;95816.09;5042416;28;20833;-70
2021/11/06 06:02:53;;;;;;;24.42;10.52;;;;;;;10.49;100.00;95822.25;5041424;28;20051;-70
2021/11/06 06:05:20;;;;;;;15.40;8.88;;;;;;;10.51;100.00;95825.47;5043635;28;20514;-70
2021/11/06 06:07:47;;;;;;;32.08;11.00;;;;;;;10.50;100.00;95838.69;5042624;28;20067;-70
2021/11/06 06:10:16;;;;;;;22.05;10.45;;;;;;;10.38;100.00;95840.31;5044088;28;20056;-69
2021/11/06 06:12:44;;;;;;;29.35;13.82;;;;;;;10.42;100.00;95854.53;5041916;28;20045;-69
2021/11/06 06:15:11;;;;;;;32.13;9.90;;;;;;;10.52;100.00;95854.91;5043850;28;20568;-70
2021/11/06 06:17:38;;;;;;;21.25;11.13;;;;;;;10.46;100.00;95856.53;5044642;28;20514;-69
2021/11/06 06:20:06;;;;;;;24.08;11.20;;;;;;;10.56;100.00;95865.72;5044009;28;20037;-69
2021/11/06 06:22:33;;;;;;;49.33;22.52;;;;;;;10.54;100.00;95867.72;5044552;28;20070;-70
2021/11/06 06:25:00;;;;;;;19.90;10.48;;;;;;;10.51;100.00;95872.34;5044293;28;20059;-70
2021/11/06 06:27:27;;;;;;;28.23;12.00;;;;;;;10.57;100.00;95882.94;5044017;28;20049;-69
2021/11/06 06:29:54;;;;;;;21.90;10.27;;;;;;;10.57;100.00;95869.91;5044097;28;20099;-69
2021/11/06 06:32:21;;;;;;;32.97;10.57;;;;;;;10.63;100.00;95889.94;5042843;28;20398;-69
2021/11/06 06:34:48;;;;;;;35.38;12.52;;;;;;;10.70;100.00;95893.31;5043238;28;20052;-70
2021/11/06 06:37:15;;;;;;;22.67;10.50;;;;;;;10.97;100.00;95903.66;5042973;28;20044;-69
2021/11/06 06:39:42;;;;;;;26.92;10.45;;;;;;;11.15;100.00;95901.19;5043515;28;20049;-69
2021/11/06 06:42:09;;;;;;;22.17;10.63;;;;;;;11.29;100.00;95907.91;5042418;28;20056;-70
2021/11/06 06:44:36;;;;;;;23.50;10.75;;;;;;;11.38;100.00;95890.22;5043733;28;20041;-70
2021/11/06 06:47:03;;;;;;;27.10;12.80;;;;;;;11.48;100.00;95894.97;5042795;28;20484;-70
2021/11/06 06:49:30;;;;;;;24.33;10.50;;;;;;;11.75;100.00;95918.28;5042227;28;20037;-71
2021/11/06 06:51:58;;;;;;;20.35;9.70;;;;;;;11.88;100.00;95926.00;5043299;28;20029;-71
2021/11/06 06:54:27;;;;;;;22.05;11.05;;;;;;;11.95;100.00;95916.34;5041201;28;20041;-71
2021/11/06 06:56:54;;;;;;;24.00;12.63;;;;;;;12.03;100.00;95921.31;5044261;28;20476;-70
2021/11/06 06:59:21;;;;;;;33.80;13.32;;;;;;;12.01;100.00;95905.09;5042191;28;20040;-69
2021/11/06 07:01:48;;;;;;;22.75;9.80;;;;;;;12.23;100.00;95922.97;5042764;28;20049;-71
2021/11/06 07:04:15;;;;;;;26.70;10.45;;;;;;;12.26;100.00;95912.09;5042799;28;20429;-71
2021/11/06 07:06:43;;;;;;;26.45;11.40;;;;;;;12.30;100.00;95933.34;5043187;28;20406;-70
2021/11/06 07:09:09;;;;;;;27.38;12.68;;;;;;;12.39;100.00;95932.09;5042318;28;20095;-70
2021/11/06 07:11:36;;;;;;;22.35;10.55;;;;;;;12.43;100.00;95934.03;5041833;28;20102;-71
2021/11/06 07:14:03;;;;;;;23.13;10.25;;;;;;;12.53;100.00;95932.75;5042123;28;20041;-70
2021/11/06 07:16:30;;;;;;;22.88;10.70;;;;;;;12.56;100.00;95914.81;5047213;28;20292;-70
2021/11/06 07:18:56;;;;;;;22.60;10.45;;;;;;;12.57;100.00;95926.09;5043423;28;20050;-70
2021/11/06 07:21:23;;;;;;;21.38;10.77;;;;;;;12.67;100.00;95931.59;5040643;28;20033;-70
2021/11/06 07:23:53;;;;;;;25.20;11.38;;;;;;;12.67;100.00;95913.31;5039964;28;20045;-70
2021/11/06 07:26:20;;;;;;;35.47;17.10;;;;;;;12.76;100.00;95917.22;5041004;28;20088;-70
2021/11/06 07:28:47;;;;;;;42.15;20.83;;;;;;;12.85;100.00;95919.56;5045274;28;20525;-70
2021/11/06 07:31:14;;;;;;;27.00;12.57;;;;;;;12.74;100.00;95903.59;5043805;28;20045;-69
2021/11/06 07:33:42;;;;;;;21.17;10.90;;;;;;;12.57;100.00;95899.97;5040721;28;20198;-70
2021/11/06 07:36:12;;;;;;;32.78;15.38;;;;;;;12.62;100.00;95910.53;5041691;28;20054;-69
2021/11/06 07:38:38;;;;;;;64.15;24.92;;;;;;;12.46;100.00;95890.22;5041863;28;20114;-69
2021/11/06 07:41:05;;;;;;;48.42;18.88;;;;;;;12.57;100.00;95894.75;5036375;28;20480;-69
2021/11/06 07:43:36;;;;;;;30.85;12.77;;;;;;;12.72;100.00;95913.47;5035969;28;20048;-70
2021/11/06 07:46:06;;;;;;;34.15;14.13;;;;;;;12.89;100.00;95910.25;5039481;28;20056;-70
2021/11/06 07:48:33;;;;;;;79.03;26.05;;;;;;;12.91;100.00;95910.84;5046410;28;20048;-69
2021/11/06 07:51:00;;;;;;;81.45;26.08;;;;;;;12.94;100.00;95918.25;5044726;28;20052;-70
2021/11/06 07:53:27;;;;;;;59.03;22.95;;;;;;;12.99;100.00;95910.56;5046568;28;20478;-70
2021/11/06 07:55:54;;;;;;;54.55;24.60;;;;;;;13.09;100.00;95916.06;5044340;28;20041;-70
2021/11/06 07:58:23;;;;;;;33.53;17.05;;;;;;;13.13;100.00;95909.38;5046556;28;20458;-69
2021/11/06 08:00:50;;;;;;;25.15;12.98;;;;;;;13.28;100.00;95914.22;5039379;28;20064;-69
2021/11/06 08:03:17;;;;;;;24.63;9.50;;;;;;;13.49;100.00;95926.06;5044853;28;20085;-70
2021/11/06 08:05:44;;;;;;;31.20;10.63;;;;;;;13.61;100.00;95923.47;5042597;28;20037;-69
2021/11/06 08:08:11;;;;;;;25.77;11.77;;;;;;;13.58;100.00;95929.97;5024283;28;20048;-70
2021/11/06 08:10:38;;;;;;;19.40;10.68;;;;;;;13.76;100.00;95930.94;5042378;28;20049;-70
2021/11/06 08:13:06;;;;;;;18.33;8.18;;;;;;;14.01;99.56;95937.78;5041170;28;20521;-69
2021/11/06 08:15:33;;;;;;;19.65;9.15;;;;;;;14.21;97.65;95933.06;5045586;28;20041;-70
2021/11/06 08:18:00;;;;;;;21.20;8.63;;;;;;;14.40;96.36;95927.72;5041193;28;20049;-70
2021/11/06 08:20:27;;;;;;;23.00;9.93;;;;;;;14.53;96.05;95935.34;5038676;28;20041;-70
2021/11/06 08:22:54;;;;;;;20.33;10.13;;;;;;;14.66;94.96;95937.78;5043877;28;20091;-67
2021/11/06 08:25:22;;;;;;;18.63;8.50;;;;;;;14.97;94.32;95935.00;5042430;28;20045;-70
2021/11/06 08:27:53;;;;;;;17.67;7.90;;;;;;;15.12;92.38;95937.13;5044211;28;20489;-71
2021/11/06 08:30:22;;;;;;;53.45;22.98;;;;;;;15.23;91.35;95936.28;5040668;28;20048;-71
2021/11/06 08:32:50;;;;;;;22.88;9.93;;;;;;;15.23;91.35;95944.16;5045842;28;20029;-70
2021/11/06 08:35:17;;;;;;;20.42;9.15;;;;;;;15.26;89.95;95927.97;5043294;28;20110;-70
2021/11/06 08:37:44;;;;;;;15.35;7.55;;;;;;;15.35;89.93;95942.31;5026228;28;20056;-71
2021/11/06 08:40:12;;;;;;;20.65;8.98;;;;;;;15.47;89.07;95950.94;5043442;28;20053;-71
2021/11/06 08:42:39;;;;;;;14.98;7.88;;;;;;;15.54;88.58;95955.25;5043030;28;20400;-71
2021/11/06 08:45:10;;;;;;;23.48;8.77;;;;;;;15.56;88.89;95953.22;5043545;28;20056;-70
2021/11/06 08:47:38;;;;;;;17.08;8.23;;;;;;;15.64;88.43;95934.44;5042751;28;20041;-71
2021/11/06 08:50:07;;;;;;;15.20;8.25;;;;;;;15.70;87.84;95938.75;5043528;28;20144;-71
2021/11/06 08:52:34;;;;;;;15.43;8.13;;;;;;;15.91;86.62;95939.13;5042920;28;20044;-71
2021/11/06 08:55:01;;;;;;;20.65;8.68;;;;;;;16.09;86.57;95946.78;5045676;28;20414;-71
2021/11/06 08:57:28;;;;;;;23.77;9.48;;;;;;;16.17;88.23;95943.78;5044653;28;20036;-69
2021/11/06 09:00:00;;;;;;;28.92;11.70;;;;;;;16.31;87.71;95948.69;5045012;28;20041;-70
2021/11/06 09:02:26;;;;;;;13.43;7.10;;;;;;;16.47;86.74;95937.38;5043969;28;20049;-70
2021/11/06 09:04:54;;;;;;;16.30;8.60;;;;;;;16.60;83.48;95926.53;5044121;28;20135;-69
2021/11/06 09:07:21;;;;;;;17.30;8.02;;;;;;;16.72;83.59;95928.25;5043788;28;20530;-70
2021/11/06 09:09:48;;;;;;;13.13;7.03;;;;;;;16.88;82.86;95932.72;5044370;28;20510;-69
2021/11/06 09:12:15;;;;;;;12.35;6.78;;;;;;;16.86;81.27;95942.69;5045735;28;20040;-69
2021/11/06 09:14:42;;;;;;;15.43;6.90;;;;;;;16.90;81.28;95935.88;5044595;28;20056;-69
2021/11/06 09:17:09;;;;;;;13.13;8.02;;;;;;;16.92;80.06;95918.03;5045557;28;20583;-69
2021/11/06 09:19:35;;;;;;;16.85;7.80;;;;;;;16.94;80.58;95934.38;5045918;28;20103;-69
2021/11/06 09:22:03;;;;;;;20.00;7.65;;;;;;;17.08;78.38;95931.38;5043957;28;20040;-69
2021/11/06 09:24:29;;;;;;;14.63;7.40;;;;;;;17.32;78.38;95943.25;5044817;28;20052;-69
2021/11/06 09:26:57;;;;;;;15.13;7.25;;;;;;;17.37;76.32;95948.56;5045432;28;20072;-69
2021/11/06 09:29:24;;;;;;;12.18;6.35;;;;;;;17.48;75.45;95943.41;5044831;28;20123;-70
2021/11/06 09:31:53;;;;;;;12.82;6.63;;;;;;;17.49;75.05;95937.13;5044968;28;20454;-69
2021/11/06 09:34:19;;;;;;;15.48;7.35;;;;;;;17.73;75.11;95946.31;5026525;28;20049;-69
2021/11/06 09:36:46;;;;;;;14.70;7.40;;;;;;;17.89;74.74;95947.28;5043153;28;20548;-69
2021/11/06 09:39:14;;;;;;;22.17;12.05;;;;;;;17.87;74.84;95948.59;5045280;28;20060;-69
2021/11/06 09:41:41;;;;;;;21.33;10.63;;;;;;;17.71;75.72;95934.44;5043613;28;20294;-69
2021/11/06 09:44:09;;;;;;;15.60;9.68;;;;;;;17.68;76.03;95943.66;5043699;28;20053;-68
2021/11/06 09:46:36;;;;;;;18.98;10.18;;;;;;;17.66;77.07;95932.53;5044226;28;20043;-69
2021/11/06 09:49:03;;;;;;;14.50;8.48;;;;;;;17.78;76.81;95930.53;5043259;28;20041;-70
2021/11/06 09:51:32;;;;;;;20.63;8.98;;;;;;;17.65;77.27;95920.41;5044219;28;20059;-69
2021/11/06 09:54:02;;;;;;;18.13;8.73;;;;;;;17.68;76.71;95922.56;5042921;28;20426;-69
2021/11/06 09:56:29;;;;;;;14.70;7.80;;;;;;;17.44;77.52;95908.09;5044510;28;20521;-69
2021/11/06 09:59:00;;;;;;;22.27;12.15;;;;;;;17.48;78.17;95919.72;5027285;28;20041;-69
2021/11/06 10:01:28;;;;;;;24.63;10.98;;;;;;;17.49;78.66;95910.78;5043227;28;20037;-69
2021/11/06 10:03:55;;;;;;;18.25;7.88;;;;;;;17.41;77.99;95919.09;5043311;28;20447;-69
2021/11/06 10:06:24;;;;;;;14.50;7.88;;;;;;;17.32;78.72;95916.94;5043779;28;20041;-69
2021/11/06 10:08:53;;;;;;;13.48;6.80;;;;;;;17.28;77.76;95918.44;5043549;28;20056;-69
2021/11/06 10:11:28;;;;;;;12.77;6.82;;;;;;;17.22;78.11;95910.75;5023338;28;20045;-69
2021/11/06 10:14:02;;;;;;;14.25;7.07;;;;;;;17.07;78.18;95903.47;5042714;28;20045;-69
2021/11/06 10:16:38;;;;;;;22.13;8.45;;;;;;;17.16;78.33;95901.97;5044472;28;20049;-69
2021/11/06 10:19:07;;;;;;;14.57;7.93;;;;;;;17.18;78.74;95905.97;5044537;28;20041;-69
2021/11/06 10:21:37;;;;;;;13.43;7.60;;;;;;;16.95;79.32;95901.75;5043093;28;20045;-68
2021/11/06 10:24:04;;;;;;;19.17;9.93;;;;;;;16.95;79.96;95901.75;5044810;28;20037;-69
2021/11/06 10:26:32;;;;;;;16.08;7.97;;;;;;;16.91;79.99;95900.66;5026561;28;20048;-69
2021/11/06 10:29:07;;;;;;;13.23;7.50;;;;;;;17.08;80.14;95899.81;5044314;28;20045;-69
2021/11/06 10:31:55;;;;;;;16.92;7.60;;;;;;;17.10;79.50;95902.97;5026669;28;20052;-69
2021/11/06 10:34:25;;;;;;;15.50;8.07;;;;;;;17.15;77.83;95895.13;5043661;28;20048;-68
2021/11/06 10:37:12;;;;;;;16.05;8.48;;;;;;;17.13;78.56;95899.88;5040563;28;20049;-68
2021/11/06 10:40:10;;;;;;;25.40;9.43;;;;;;;17.08;79.98;95894.53;5041041;28;20049;-68
2021/11/06 10:42:58;;;;;;;17.83;8.15;;;;;;;17.14;79.44;95904.88;5024520;28;20057;-69
2021/11/06 10:45:29;;;;;;;14.57;7.07;;;;;;;17.20;79.16;95903.88;5035454;28;20043;-69
2021/11/06 10:48:08;;;;;;;15.07;7.95;;;;;;;17.32;78.33;95903.75;5043315;28;20048;-69
2021/11/06 10:50:52;;;;;;;18.02;8.05;;;;;;;17.48;77.74;95907.34;5045378;28;20041;-67
2021/11/06 10:53:39;;;;;;;19.10;7.05;;;;;;;17.52;76.59;95894.47;5026620;28;20052;-68
2021/11/06 10:56:06;;;;;;;18.67;10.27;;;;;;;17.64;77.25;95902.22;5047030;28;20060;-70
2021/11/06 10:58:35;;;;;;;11.63;6.82;;;;;;;17.72;78.05;95899.94;5047555;28;20122;-68
2021/11/06 11:01:10;;;;;;;13.75;7.57;;;;;;;17.83;77.15;95905.31;5045789;28;20049;-68
2021/11/06 11:03:42;;;;;;;15.77;6.75;;;;;;;17.85;76.14;95897.94;5046628;28;20041;-67
2021/11/06 11:06:13;;;;;;;19.25;8.55;;;;;;;17.77;75.93;95897.34;5045132;28;20053;-68
2021/11/06 11:08:49;;;;;;;13.65;7.25;;;;;;;17.70;76.21;95880.97;5047838;28;20062;-68
2021/11/06 11:11:19;;;;;;;16.98;8.68;;;;;;;17.75;76.22;95878.38;5045642;28;20055;-68
2021/11/06 11:13:57;;;;;;;16.05;9.05;;;;;;;18.03;74.23;95889.69;5044536;28;20045;-67
2021/11/06 11:16:24;;;;;;;19.20;11.20;;;;;;;18.16;75.30;95883.19;5047117;28;20037;-68
2021/11/06 11:18:56;;;;;;;13.70;6.93;;;;;;;18.19;74.55;95868.72;5045632;28;20045;-69
2021/11/06 11:21:32;;;;;;;14.20;6.97;;;;;;;18.40;73.32;95883.63;5043363;28;20044;-68
2021/11/06 11:24:03;;;;;;;16.27;7.35;;;;;;;18.39;74.25;95876.75;5022432;28;20132;-68